createdAt,value
2024-01-16T00:01:19.508Z,2.75
2024-01-16T00:03:52.079Z,3.58
2024-01-16T00:06:22.007Z,3.38
2024-01-16T00:08:51.859Z,3.25
2024-01-16T00:11:22.907Z,3.10
2024-01-16T00:13:53.917Z,2.75
2024-01-16T00:16:23.759Z,3.38
2024-01-16T00:18:56.430Z,2.40
2024-01-16T00:23:56.089Z,2.85
2024-01-16T00:26:26.517Z,4.88
2024-01-16T00:28:56.706Z,2.35
2024-01-16T00:31:26.787Z,3.50
2024-01-16T00:33:59.393Z,3.63
2024-01-16T00:36:29.304Z,2.80
2024-01-16T00:38:59.250Z,4.35
2024-01-16T00:41:30.063Z,3.35
2024-01-16T00:44:00.009Z,3.13
2024-01-16T00:46:30.824Z,1.50
2024-01-16T00:49:03.338Z,2.88
2024-01-16T00:54:03.079Z,2.05
2024-01-16T00:56:34.783Z,4.22
2024-01-16T00:59:04.711Z,4.72
2024-01-16T01:01:34.557Z,2.30
2024-01-16T01:04:07.133Z,4.15
2024-01-16T01:06:37.314Z,6.35
2024-01-16T01:09:08.040Z,2.75
2024-01-16T01:11:38.923Z,5.65
2024-01-16T01:14:10.187Z,2.65
2024-01-16T01:16:40.614Z,2.15
2024-01-16T01:19:14.188Z,6.30
2024-01-16T01:21:44.347Z,2.40
2024-01-16T01:24:14.189Z,4.50
2024-01-16T01:26:47.202Z,2.13
2024-01-16T01:29:19.044Z,5.30
2024-01-16T01:31:51.498Z,3.38
2024-01-16T01:34:24.243Z,2.80
2024-01-16T01:36:54.368Z,5.60
2024-01-16T01:39:24.542Z,3.15
2024-01-16T01:41:55.017Z,3.17
2024-01-16T01:44:26.373Z,5.53
2024-01-16T01:46:59.009Z,2.80
2024-01-16T01:49:32.168Z,2.08
2024-01-16T01:52:02.679Z,3.60
2024-01-16T01:54:35.674Z,3.88
2024-01-16T01:57:06.539Z,3.25
2024-01-16T01:59:37.082Z,5.97
2024-01-16T02:02:08.612Z,3.95
2024-01-16T02:04:42.514Z,6.85
2024-01-16T02:07:12.333Z,4.78
2024-01-16T02:09:42.725Z,5.43
2024-01-16T02:12:12.737Z,3.28
2024-01-16T02:14:43.459Z,3.50
2024-01-16T02:17:13.374Z,2.40
2024-01-16T02:19:46.484Z,6.57
2024-01-16T02:22:23.650Z,6.07
2024-01-16T02:24:57.981Z,3.85
2024-01-16T02:27:28.051Z,3.45
2024-01-16T02:29:57.915Z,5.22
2024-01-16T02:32:30.168Z,4.00
2024-01-16T02:35:00.321Z,2.67
2024-01-16T02:37:30.244Z,6.32
2024-01-16T02:40:07.533Z,7.80
2024-01-16T02:42:38.770Z,4.50
2024-01-16T02:45:09.977Z,2.00
2024-01-16T02:47:39.862Z,3.10
2024-01-16T02:50:11.944Z,5.25
2024-01-16T02:52:41.852Z,2.33
2024-01-16T02:55:15.860Z,1.83
2024-01-16T02:57:45.980Z,4.88
2024-01-16T03:00:16.894Z,4.60
2024-01-16T03:02:47.496Z,4.50
2024-01-16T03:05:17.855Z,3.83
2024-01-16T03:07:48.365Z,8.90
2024-01-16T03:10:21.074Z,4.53
2024-01-16T03:12:51.154Z,5.70
2024-01-16T03:15:21.497Z,6.32
2024-01-16T03:17:52.056Z,3.05
2024-01-16T03:20:24.727Z,3.38
2024-01-16T03:22:54.694Z,7.15
2024-01-16T03:25:28.388Z,3.08
2024-01-16T03:27:58.591Z,4.60
2024-01-16T03:30:29.145Z,3.42
2024-01-16T03:32:59.330Z,3.78
2024-01-16T03:35:29.438Z,4.63
2024-01-16T03:37:59.204Z,3.55
2024-01-16T03:40:35.693Z,3.22
2024-01-16T03:43:06.637Z,1.98
2024-01-16T03:45:37.013Z,6.40
2024-01-16T03:48:07.677Z,9.63
2024-01-16T03:50:38.119Z,2.75
2024-01-16T03:53:08.011Z,6.80
2024-01-16T03:55:40.714Z,8.60
2024-01-16T03:58:13.432Z,5.50
2024-01-16T04:00:43.565Z,4.10
2024-01-16T04:03:14.494Z,7.65
2024-01-16T04:05:44.696Z,9.90
2024-01-16T04:08:17.837Z,4.85
2024-01-16T04:10:50.984Z,6.93
2024-01-16T04:15:50.450Z,4.57
2024-01-16T04:18:20.729Z,3.70
2024-01-16T04:20:51.366Z,5.57
2024-01-16T04:23:21.661Z,5.95
2024-01-16T04:25:54.074Z,4.03
2024-01-16T04:28:24.055Z,6.38
2024-01-16T04:30:54.051Z,7.40
2024-01-16T04:33:24.103Z,7.72
2024-01-16T04:35:54.651Z,8.75
2024-01-16T04:38:24.997Z,5.03
2024-01-16T04:40:57.475Z,7.35
2024-01-16T04:43:27.661Z,9.52
2024-01-16T04:45:59.281Z,6.90
2024-01-16T04:48:31.325Z,6.40
2024-01-16T04:51:01.270Z,5.07
2024-01-16T04:53:33.832Z,5.28
2024-01-16T04:56:06.736Z,3.97
2024-01-16T05:01:06.683Z,4.25
2024-01-16T05:03:38.004Z,7.32
2024-01-16T05:06:08.772Z,6.32
2024-01-16T05:08:38.731Z,7.50
2024-01-16T05:11:12.191Z,6.57
2024-01-16T05:13:42.113Z,3.38
2024-01-16T05:16:12.073Z,7.15
2024-01-16T05:18:42.093Z,4.13
2024-01-16T05:21:12.025Z,7.05
2024-01-16T05:23:42.197Z,5.00
2024-01-16T05:26:15.308Z,5.82
2024-01-16T05:28:45.263Z,4.95
2024-01-16T05:31:15.291Z,6.88
2024-01-16T05:33:45.378Z,8.27
2024-01-16T05:36:15.593Z,4.05
2024-01-16T05:38:45.626Z,8.25
2024-01-16T05:41:18.435Z,7.53
2024-01-16T05:46:18.030Z,7.50
2024-01-16T05:48:48.674Z,6.75
2024-01-16T05:51:19.178Z,7.13
2024-01-16T05:53:49.428Z,6.45
2024-01-16T05:56:22.234Z,4.70
2024-01-16T06:01:23.839Z,9.80
2024-01-16T06:03:53.774Z,6.65
2024-01-16T06:06:23.697Z,6.20
2024-01-16T06:08:53.577Z,8.10
2024-01-16T06:16:33.914Z,9.20
2024-01-16T06:19:03.797Z,5.28
2024-01-16T06:21:33.905Z,9.63
2024-01-16T06:24:03.958Z,4.50
2024-01-16T06:26:37.392Z,5.82
2024-01-16T06:29:11.594Z,4.65
2024-01-16T06:31:47.891Z,10.48
2024-01-16T06:34:17.830Z,7.53
2024-01-16T06:36:48.202Z,6.43
2024-01-16T06:39:18.692Z,3.97
2024-01-16T06:41:51.254Z,5.25
2024-01-16T06:44:22.312Z,10.18
2024-01-16T06:46:52.177Z,9.68
2024-01-16T06:49:22.092Z,4.40
2024-01-16T06:51:52.177Z,3.53
2024-01-16T06:54:24.670Z,5.50
2024-01-16T06:56:57.218Z,7.95
2024-01-16T06:59:27.089Z,6.55
2024-01-16T07:01:57.124Z,8.98
2024-01-16T07:04:27.277Z,7.00
2024-01-16T07:06:57.104Z,6.32
2024-01-16T07:09:27.000Z,9.30
2024-01-16T07:11:59.518Z,7.55
2024-01-16T07:14:29.796Z,7.38
2024-01-16T07:17:00.307Z,7.57
2024-01-16T07:19:30.724Z,7.13
2024-01-16T07:22:00.572Z,6.50
2024-01-16T07:24:30.635Z,10.73
2024-01-16T07:27:03.243Z,8.90
2024-01-16T07:29:33.209Z,7.10
2024-01-16T07:32:04.106Z,11.15
2024-01-16T07:34:35.430Z,9.55
2024-01-16T07:37:05.553Z,4.85
2024-01-16T07:39:35.863Z,9.45
2024-01-16T07:42:09.220Z,5.88
2024-01-16T07:44:39.117Z,6.45
2024-01-16T07:47:10.107Z,11.13
2024-01-16T07:49:40.127Z,6.00
2024-01-16T07:52:10.214Z,11.88
2024-01-16T07:54:40.058Z,8.30
2024-01-16T07:57:13.427Z,8.80
2024-01-16T07:59:44.001Z,9.98
2024-01-16T08:02:15.398Z,10.45
2024-01-16T08:04:45.237Z,10.50
2024-01-16T08:07:15.692Z,5.03
2024-01-16T08:09:45.753Z,11.25
2024-01-16T08:12:18.606Z,6.50
2024-01-16T08:14:48.668Z,6.03
2024-01-16T08:17:19.204Z,8.50
2024-01-16T08:19:49.292Z,8.68
2024-01-16T08:22:22.055Z,5.70
2024-01-16T08:27:24.493Z,8.88
2024-01-16T08:29:54.424Z,5.13
2024-01-16T08:32:24.308Z,7.60
2024-01-16T08:34:54.909Z,14.18
2024-01-16T08:37:26.788Z,7.03
2024-01-16T08:39:56.875Z,8.98
2024-01-16T08:42:30.468Z,6.50
2024-01-16T08:45:00.857Z,7.65
2024-01-16T08:47:31.133Z,10.80
2024-01-16T08:50:01.182Z,7.47
2024-01-16T08:52:32.065Z,5.68
2024-01-16T08:55:01.991Z,6.38
2024-01-16T08:57:34.730Z,9.63
2024-01-16T09:00:04.978Z,7.50
2024-01-16T09:02:35.084Z,12.50
2024-01-16T09:05:06.476Z,6.30
2024-01-16T09:07:36.520Z,6.63
2024-01-16T09:10:07.114Z,8.00
2024-01-16T09:12:40.332Z,7.25
2024-01-16T09:15:11.784Z,6.85
2024-01-16T09:17:41.934Z,7.38
2024-01-16T09:20:13.406Z,9.23
2024-01-16T09:22:43.538Z,5.65
2024-01-16T09:25:13.425Z,10.77
2024-01-16T09:27:47.071Z,13.35
2024-01-16T09:30:17.740Z,7.32
2024-01-16T09:32:47.697Z,13.05
2024-01-16T09:35:18.064Z,7.85
2024-01-16T09:37:48.258Z,7.75
2024-01-16T09:40:18.203Z,6.97
2024-01-16T09:42:51.027Z,10.45
2024-01-16T09:45:24.420Z,5.43
2024-01-16T09:47:55.537Z,6.43
2024-01-16T09:50:26.855Z,6.85
2024-01-16T09:52:59.899Z,8.05
2024-01-16T09:55:30.126Z,12.07
2024-01-16T09:58:04.844Z,9.38
2024-01-16T10:00:35.257Z,8.88
2024-01-16T10:03:06.140Z,6.70
2024-01-16T10:05:37.315Z,8.43
2024-01-16T10:08:09.226Z,9.65
2024-01-16T10:10:47.629Z,8.77
2024-01-16T10:13:23.622Z,8.90
2024-01-16T10:15:56.744Z,6.50
2024-01-16T10:18:28.634Z,7.03
2024-01-16T10:20:58.890Z,7.15
2024-01-16T10:23:29.797Z,13.20
2024-01-16T10:26:13.176Z,13.65
2024-01-16T10:28:46.831Z,9.85
2024-01-16T10:31:18.461Z,9.50
2024-01-16T10:33:48.595Z,7.28
2024-01-16T10:36:21.981Z,5.85
2024-01-16T10:38:58.760Z,12.73
2024-01-16T10:41:28.960Z,9.93
2024-01-16T10:44:09.521Z,12.15
2024-01-16T10:46:40.079Z,8.20
2024-01-16T10:49:10.149Z,7.75
2024-01-16T10:51:41.029Z,6.25
2024-01-16T10:54:15.212Z,7.10
2024-01-16T10:56:49.677Z,5.63
2024-01-16T10:59:28.992Z,5.90
2024-01-16T11:02:02.231Z,7.03
2024-01-16T11:04:33.356Z,7.50
2024-01-16T11:07:05.690Z,7.00
2024-01-16T11:09:36.815Z,8.25
2024-01-16T11:12:07.919Z,7.75
2024-01-16T11:14:41.147Z,9.45
2024-01-16T11:17:18.830Z,5.70
2024-01-16T11:20:07.222Z,6.47
2024-01-16T11:22:42.429Z,8.32
2024-01-16T11:25:14.289Z,7.80
2024-01-16T11:27:45.608Z,6.80
2024-01-16T11:30:34.089Z,6.47
2024-01-16T11:33:06.306Z,11.82
2024-01-16T11:35:38.142Z,6.40
2024-01-16T11:38:09.995Z,11.07
2024-01-16T11:40:40.262Z,6.15
2024-01-16T11:43:40.236Z,9.82
2024-01-16T11:46:13.268Z,7.28
2024-01-16T11:48:44.291Z,7.05
2024-01-16T11:51:27.715Z,7.10
2024-01-16T11:53:57.597Z,7.28
2024-01-16T11:56:59.330Z,12.40
2024-01-16T11:59:59.197Z,9.60
2024-01-16T12:02:42.678Z,8.15
2024-01-16T12:05:15.509Z,5.90
2024-01-16T12:07:51.286Z,8.13
2024-01-16T12:10:22.559Z,4.80
2024-01-16T12:12:54.173Z,7.65
2024-01-16T12:15:25.094Z,14.30
2024-01-16T12:18:02.536Z,9.63
2024-01-16T12:20:34.595Z,15.88
2024-01-16T12:23:05.957Z,15.25
2024-01-16T12:26:00.813Z,18.92
2024-01-16T12:28:32.397Z,8.73
2024-01-16T12:31:04.782Z,10.30
2024-01-16T12:33:38.945Z,7.68
2024-01-16T12:36:12.069Z,17.00
2024-01-16T12:38:42.020Z,11.07
2024-01-16T12:41:14.599Z,10.00
2024-01-16T12:43:41.988Z,28.45
2024-01-16T12:46:15.319Z,15.02
2024-01-16T12:48:56.379Z,12.68
2024-01-16T12:51:33.359Z,15.23
2024-01-16T12:54:15.274Z,15.07
2024-01-16T12:56:45.710Z,26.85
2024-01-16T12:59:16.323Z,53.08
2024-01-16T13:01:47.934Z,36.28
2024-01-16T13:04:20.848Z,16.00
2024-01-16T13:06:51.858Z,13.75
2024-01-16T13:09:27.524Z,14.80
2024-01-16T13:12:00.049Z,16.75
2024-01-16T13:17:00.185Z,15.95
2024-01-16T13:19:35.009Z,20.15
2024-01-16T13:22:05.464Z,18.85
2024-01-16T13:24:35.542Z,18.73
2024-01-16T13:27:05.768Z,11.07
2024-01-16T13:29:39.480Z,11.63
2024-01-16T13:32:10.037Z,22.92
2024-01-16T13:34:47.695Z,27.55
2024-01-16T13:37:24.318Z,21.10
2024-01-16T13:39:54.136Z,15.50
2024-01-16T13:42:24.064Z,14.88
2024-01-16T13:44:54.487Z,12.73
2024-01-16T13:47:24.602Z,19.80
2024-01-16T13:49:57.545Z,17.27
2024-01-16T13:52:29.320Z,26.13
2024-01-16T13:54:59.342Z,25.50
2024-01-16T13:57:29.378Z,22.27
2024-01-16T14:00:00.195Z,29.30
2024-01-16T14:02:31.193Z,29.65
2024-01-16T14:05:03.774Z,18.85
2024-01-16T14:07:34.139Z,15.05
2024-01-16T14:10:06.049Z,19.30
2024-01-16T14:15:17.169Z,12.15
2024-01-16T14:17:48.236Z,14.75
2024-01-16T14:20:27.210Z,17.98
2024-01-16T14:22:59.108Z,14.20
2024-01-16T14:25:29.147Z,11.98
2024-01-16T14:28:04.872Z,16.27
2024-01-16T14:30:36.355Z,16.50
2024-01-16T14:33:08.422Z,15.85
2024-01-16T14:35:42.142Z,12.63
2024-01-16T14:38:12.035Z,13.90
2024-01-16T14:40:41.930Z,9.10
2024-01-16T14:43:11.865Z,12.85
2024-01-16T14:45:41.923Z,11.10
2024-01-16T14:48:12.811Z,14.45
2024-01-16T14:50:45.445Z,13.93
2024-01-16T14:53:15.910Z,9.27
2024-01-16T14:55:46.015Z,11.48
2024-01-16T14:58:16.116Z,13.10
2024-01-16T15:00:46.984Z,10.50
2024-01-16T15:03:19.618Z,8.27
2024-01-16T15:05:56.479Z,9.45
2024-01-16T15:08:27.531Z,14.43
2024-01-16T15:10:57.667Z,8.45
2024-01-16T15:13:27.618Z,15.05
2024-01-16T15:15:57.753Z,6.55
2024-01-16T15:18:31.092Z,10.48
2024-01-16T15:21:03.755Z,9.52
2024-01-16T15:26:06.229Z,13.30
2024-01-16T15:28:36.943Z,9.50
2024-01-16T15:31:08.989Z,12.10
2024-01-16T15:33:40.079Z,12.57
2024-01-16T15:36:12.871Z,12.77
2024-01-16T15:41:12.379Z,13.05
2024-01-16T15:43:42.493Z,11.20
2024-01-16T15:46:12.480Z,10.85
2024-01-16T15:48:44.110Z,7.57
2024-01-16T15:51:17.546Z,10.50
2024-01-16T15:53:47.596Z,10.98
2024-01-16T15:56:17.594Z,10.38
2024-01-16T15:58:47.400Z,14.07
2024-01-16T16:01:17.271Z,12.07
2024-01-16T16:03:48.121Z,11.80
2024-01-16T16:06:20.692Z,10.38
2024-01-16T16:08:50.739Z,12.85
2024-01-16T16:11:20.908Z,8.55
2024-01-16T16:13:50.811Z,9.85
2024-01-16T16:16:20.744Z,9.88
2024-01-16T16:18:51.142Z,9.02
2024-01-16T16:23:52.441Z,7.68
2024-01-16T16:26:34.436Z,13.25
2024-01-16T16:29:05.658Z,10.52
2024-01-16T16:31:36.227Z,12.10
2024-01-16T16:34:08.080Z,9.38
2024-01-16T16:36:42.976Z,10.65
2024-01-16T16:39:14.418Z,16.38
2024-01-16T16:41:44.888Z,11.50
2024-01-16T16:44:15.296Z,8.57
2024-01-16T16:46:45.609Z,8.20
2024-01-16T16:49:15.842Z,9.70
2024-01-16T16:51:48.928Z,9.10
2024-01-16T16:54:18.923Z,8.52
2024-01-16T16:56:48.787Z,11.57
2024-01-16T16:59:19.414Z,10.65
2024-01-16T17:01:49.335Z,8.65
2024-01-16T17:04:19.279Z,6.85
2024-01-16T17:06:51.955Z,10.43
2024-01-16T17:09:22.825Z,6.03
2024-01-16T17:11:52.667Z,7.93
2024-01-16T17:14:22.880Z,7.63
2024-01-16T17:16:52.960Z,8.35
2024-01-16T17:19:23.303Z,10.10
2024-01-16T17:21:55.984Z,9.40
2024-01-16T17:24:25.905Z,7.80
2024-01-16T17:26:55.821Z,9.65
2024-01-16T17:29:26.841Z,7.65
2024-01-16T17:31:57.959Z,9.88
2024-01-16T17:34:28.102Z,7.93
2024-01-16T17:37:00.787Z,8.50
2024-01-16T17:39:30.919Z,6.47
2024-01-16T17:42:01.137Z,6.15
2024-01-16T17:44:39.169Z,9.77
2024-01-16T17:47:09.432Z,6.82
2024-01-16T17:49:39.257Z,10.35
2024-01-16T17:52:12.429Z,7.72
2024-01-16T17:54:43.016Z,5.63
2024-01-16T17:57:13.418Z,9.65
2024-01-16T17:59:44.324Z,6.78
2024-01-16T18:02:14.316Z,7.47
2024-01-16T18:04:45.284Z,11.23
2024-01-16T18:07:17.923Z,8.80
2024-01-16T18:09:48.453Z,7.18
2024-01-16T18:12:18.633Z,6.78
2024-01-16T18:14:48.957Z,10.85
2024-01-16T18:17:19.856Z,7.20
2024-01-16T18:19:51.013Z,9.43
2024-01-16T18:22:23.577Z,8.02
2024-01-16T18:24:54.600Z,6.07
2024-01-16T18:27:24.424Z,8.60
2024-01-16T18:29:54.364Z,7.13
2024-01-16T18:32:24.378Z,6.63
2024-01-16T18:34:54.466Z,9.38
2024-01-16T18:37:27.007Z,4.47
2024-01-16T18:39:56.979Z,9.13
2024-01-16T18:42:26.779Z,9.05
2024-01-16T18:44:57.551Z,5.78
2024-01-16T18:47:28.028Z,6.65
2024-01-16T18:49:58.052Z,5.18
2024-01-16T18:52:30.495Z,9.38
2024-01-16T18:55:00.673Z,7.25
2024-01-16T18:57:32.571Z,6.88
2024-01-16T19:00:02.668Z,13.00
2024-01-16T19:02:33.507Z,6.32
2024-01-16T19:05:03.709Z,10.50
2024-01-16T19:07:36.153Z,6.95
2024-01-16T19:10:07.208Z,6.05
2024-01-16T19:12:37.311Z,6.05
2024-01-16T19:15:08.140Z,14.32
2024-01-16T19:17:38.118Z,8.57
2024-01-16T19:20:11.505Z,10.13
2024-01-16T19:22:44.843Z,11.10
2024-01-16T19:25:17.717Z,5.85
2024-01-16T19:27:49.600Z,6.07
2024-01-16T19:30:21.080Z,10.90
2024-01-16T19:32:51.786Z,7.57
2024-01-16T19:35:22.112Z,5.63
2024-01-16T19:37:54.519Z,7.88
2024-01-16T19:40:25.631Z,9.55
2024-01-16T19:42:55.761Z,5.35
2024-01-16T19:45:26.530Z,7.53
2024-01-16T19:47:56.567Z,10.10
2024-01-16T19:50:27.095Z,6.35
2024-01-16T19:53:00.808Z,8.82
2024-01-16T19:55:31.013Z,8.85
2024-01-16T19:58:00.962Z,10.60
2024-01-16T20:00:31.079Z,6.97
2024-01-16T20:03:01.366Z,7.25
2024-01-16T20:05:32.615Z,6.60
2024-01-16T20:08:05.528Z,9.73
2024-01-16T20:13:10.441Z,4.70
2024-01-16T20:15:40.336Z,5.13
2024-01-16T20:18:10.912Z,8.07
2024-01-16T20:20:40.847Z,7.95
2024-01-16T20:23:14.164Z,11.55
2024-01-16T20:25:44.031Z,8.32
2024-01-16T20:28:15.813Z,6.78
2024-01-16T20:30:45.679Z,7.75
2024-01-16T20:33:16.308Z,6.28
2024-01-16T20:35:46.172Z,6.55
2024-01-16T20:38:18.778Z,10.73
2024-01-16T20:40:49.625Z,7.43
2024-01-16T20:43:19.943Z,10.65
2024-01-16T20:45:50.238Z,11.38
2024-01-16T20:48:20.212Z,5.53
2024-01-16T20:50:50.257Z,9.57
2024-01-16T20:53:22.878Z,6.57
2024-01-16T20:55:52.845Z,6.40
2024-01-16T20:58:23.533Z,8.52
2024-01-16T21:00:53.828Z,8.93
2024-01-16T21:03:26.212Z,8.70
2024-01-16T21:05:57.861Z,6.95
2024-01-16T21:08:30.512Z,5.88
2024-01-16T21:11:00.623Z,6.93
2024-01-16T21:13:30.647Z,7.53
2024-01-16T21:16:03.105Z,9.40
2024-01-16T21:18:33.399Z,8.90
2024-01-16T21:21:03.817Z,9.82
2024-01-16T21:23:36.652Z,7.57
2024-01-16T21:26:11.410Z,7.40
2024-01-16T21:28:41.624Z,12.68
2024-01-16T21:31:11.753Z,7.80
2024-01-16T21:33:43.414Z,8.85
2024-01-16T21:36:15.377Z,11.05
2024-01-16T21:38:48.046Z,9.55
2024-01-16T21:41:17.976Z,9.50
2024-01-16T21:43:47.862Z,10.75
2024-01-16T21:46:17.963Z,13.45
2024-01-16T21:48:48.597Z,9.15
2024-01-16T21:51:18.751Z,10.15
2024-01-16T21:53:51.317Z,11.40
2024-01-16T21:56:22.078Z,8.50
2024-01-16T21:58:52.111Z,12.68
2024-01-16T22:01:22.445Z,9.25
2024-01-16T22:03:53.112Z,8.40
2024-01-16T22:06:24.350Z,9.10
2024-01-16T22:08:57.715Z,10.70
2024-01-16T22:11:27.942Z,12.20
2024-01-16T22:13:57.795Z,7.90
2024-01-16T22:16:28.617Z,6.50
2024-01-16T22:18:58.804Z,7.53
2024-01-16T22:21:28.867Z,9.52
2024-01-16T22:24:01.698Z,6.03
2024-01-16T22:26:32.755Z,6.53
2024-01-16T22:29:03.631Z,7.70
2024-01-16T22:31:33.857Z,7.38
2024-01-16T22:34:04.203Z,8.10
2024-01-16T22:36:34.247Z,7.00
2024-01-16T22:39:06.873Z,7.20
2024-01-16T22:41:36.802Z,7.97
2024-01-16T22:44:08.544Z,8.35
2024-01-16T22:46:38.622Z,6.43
2024-01-16T22:49:08.842Z,8.55
2024-01-16T22:51:39.716Z,6.70
2024-01-16T22:54:12.615Z,10.30
2024-01-16T22:59:12.278Z,8.23
2024-01-16T23:01:43.315Z,5.53
2024-01-16T23:04:13.231Z,7.68
2024-01-16T23:06:43.470Z,7.60
2024-01-16T23:09:15.970Z,10.32
2024-01-16T23:11:46.307Z,7.28
2024-01-16T23:14:16.203Z,12.40
2024-01-16T23:16:46.157Z,11.77
2024-01-16T23:19:16.761Z,9.75
2024-01-16T23:21:50.184Z,8.98
2024-01-16T23:24:22.886Z,7.10
2024-01-16T23:26:52.796Z,10.07
2024-01-16T23:29:22.743Z,6.63
2024-01-16T23:31:52.584Z,8.15
2024-01-16T23:34:22.664Z,8.85
2024-01-16T23:36:52.766Z,6.45
2024-01-16T23:39:26.919Z,14.32
2024-01-16T23:41:57.785Z,9.40
2024-01-16T23:44:28.006Z,7.85
2024-01-16T23:46:58.054Z,8.27
2024-01-16T23:49:27.876Z,12.30
2024-01-16T23:51:57.683Z,5.65
2024-01-16T23:54:30.222Z,5.60
2024-01-16T23:57:00.114Z,10.02
2024-01-16T23:59:29.933Z,8.23
